Millenium Air

Millenium Air Since 1998



 METAR AND TAF INFORMATION
METAR FOR VMMC
ADDS - METARS form results

(0207 UTC 06 December 2020)
Data provider http://aviationweather.gov/metar/data/
 
METAR text: VMMC 060200Z 36016KT 9000 NSC 16/10 Q1022 NOSIG
Conditions at: VMMC (MACAO/MACAU , MO) observed 0200 UTC 06 December 2020
Temperature: 16.0°C (61°F)
Dewpoint: 10.0°C (50°F) [RH = 68%]
Pressure (altimeter): 30.18 inches Hg (1022.0 mb)
Winds: from the N (360 degrees) at 18 MPH (16 knots; 8.2 m/s)
Visibility: 6 miles ( 9 km)
Ceiling: at least 12,000 feet AGL
Clouds: sky clear below 12,000 feet AGL
Weather: no significant weather observed at this time

METAR text: VMMC 060130Z 36016KT 9000 NSC 16/10 Q1022 NOSIG
Conditions at: VMMC (MACAO/MACAU , MO) observed 0130 UTC 06 December 2020
Temperature: 16.0°C (61°F)
Dewpoint: 10.0°C (50°F) [RH = 68%]
Pressure (altimeter): 30.18 inches Hg (1022.0 mb)
Winds: from the N (360 degrees) at 18 MPH (16 knots; 8.2 m/s)
Visibility: 6 miles ( 9 km)
Ceiling: at least 12,000 feet AGL
Clouds: sky clear below 12,000 feet AGL
Weather: no significant weather observed at this time

Forecast for: VMMC (MACAO/MACAU , MO)
Text: TAF VMMC 052300Z 0600/0706 36014KT 8000 FEW040
Forecast period: 0000 UTC 06 December 2020 to 0600 UTC 07 December 2020
Forecast type: FROM: standard forecast or significant change
Winds: from the N (360 degrees) at 16 MPH (14 knots; 7.2 m/s)
Visibility: 5 miles (8 km)
Ceiling: at least 12,000 feet AGL
Clouds: few clouds at 4000 feet AGL
Weather: no significant weather forecast for this period
Text: TEMPO 0603/0609 4000 HZ
Forecast period: 0300 to 0900 UTC 06 December 2020
Forecast type: TEMPORARY: The following changes expected for less than half the time period
Visibility: 2.49 miles (4.01 km)
Ceiling: unknown
Clouds: missing
Weather: HZ  (haze)
Text: TEMPO 0609/0616 10008KT
Forecast period: 0900 to 1600 UTC 06 December 2020
Forecast type: TEMPORARY: The following changes expected for less than half the time period
Winds: from the E (100 degrees) at 9 MPH (8 knots; 4.1 m/s)
Visibility: missing
Ceiling: unknown
Clouds: missing
Weather: no significant weather forecast for this period

 AIRPORT MAP

 RUNWAY INFORMATION
Runway 16 Runway length 10544 ft Runway width 148 ft
Runway elevation 20 ft Runway displaced threshold 1195 ft Runway heading 160
Runway 34 Runway length 10544 ft Runway width 148 ft
Runway elevation 20 ft Runway displaced threshold 1215 ft Runway heading 340

 AIRPORT FREQUENCIES
Type APP Name HONG KONG Frequency 126.3 MHZ
Type ATIS Name ATIS Frequency 126.4 MHZ
Type GND Name GND Frequency 121.725 MHZ
Type TWR Name TWR Frequency 118 MHZ

 AIRPORT NEAR NAVIGATION AIDS
Type VOR-DME Name Macau Frequency 116400 KHZ
Type VOR Name Jiuzhou Frequency 117200 KHZ